sensor_id;sensor_type;location;lat;lon;timestamp;P1;durP1;ratioP1;P2;durP2;ratioP2
24891;SDS011;12954;50.688;10.908;2022-12-26T00:01:18;7.90;;;5.05;;
24891;SDS011;12954;50.688;10.908;2022-12-26T00:03:47;6.05;;;5.32;;
24891;SDS011;12954;50.688;10.908;2022-12-26T00:06:18;5.43;;;4.78;;
24891;SDS011;12954;50.688;10.908;2022-12-26T00:08:48;5.85;;;4.80;;
24891;SDS011;12954;50.688;10.908;2022-12-26T00:11:17;5.03;;;4.32;;
24891;SDS011;12954;50.688;10.908;2022-12-26T00:13:46;5.90;;;4.50;;
24891;SDS011;12954;50.688;10.908;2022-12-26T00:16:20;5.45;;;4.93;;
24891;SDS011;12954;50.688;10.908;2022-12-26T00:18:49;5.38;;;4.57;;
24891;SDS011;12954;50.688;10.908;2022-12-26T00:21:19;6.40;;;4.60;;
24891;SDS011;12954;50.688;10.908;2022-12-26T00:23:49;5.90;;;4.15;;
24891;SDS011;12954;50.688;10.908;2022-12-26T00:26:18;5.30;;;4.25;;
24891;SDS011;12954;50.688;10.908;2022-12-26T00:28:49;4.80;;;4.00;;
24891;SDS011;12954;50.688;10.908;2022-12-26T00:31:18;5.20;;;4.60;;
24891;SDS011;12954;50.688;10.908;2022-12-26T00:33:50;5.13;;;4.43;;
24891;SDS011;12954;50.688;10.908;2022-12-26T00:36:21;5.00;;;4.28;;
24891;SDS011;12954;50.688;10.908;2022-12-26T00:38:50;6.20;;;4.57;;
24891;SDS011;12954;50.688;10.908;2022-12-26T00:41:19;5.22;;;4.55;;
24891;SDS011;12954;50.688;10.908;2022-12-26T00:43:48;4.80;;;4.35;;
24891;SDS011;12954;50.688;10.908;2022-12-26T00:46:17;4.90;;;4.32;;
24891;SDS011;12954;50.688;10.908;2022-12-26T00:48:46;5.30;;;4.80;;
24891;SDS011;12954;50.688;10.908;2022-12-26T00:51:15;6.55;;;4.60;;
24891;SDS011;12954;50.688;10.908;2022-12-26T00:53:45;4.72;;;4.05;;
24891;SDS011;12954;50.688;10.908;2022-12-26T00:56:13;4.60;;;4.10;;
24891;SDS011;12954;50.688;10.908;2022-12-26T00:58:42;7.13;;;4.50;;
24891;SDS011;12954;50.688;10.908;2022-12-26T01:01:12;5.72;;;4.43;;
24891;SDS011;12954;50.688;10.908;2022-12-26T01:03:43;4.85;;;4.30;;
24891;SDS011;12954;50.688;10.908;2022-12-26T01:06:12;5.57;;;4.03;;
24891;SDS011;12954;50.688;10.908;2022-12-26T01:08:42;5.90;;;4.47;;
24891;SDS011;12954;50.688;10.908;2022-12-26T01:11:12;5.45;;;4.70;;
24891;SDS011;12954;50.688;10.908;2022-12-26T01:14:02;4.30;;;3.90;;
24891;SDS011;12954;50.688;10.908;2022-12-26T01:16:30;6.00;;;4.20;;
24891;SDS011;12954;50.688;10.908;2022-12-26T01:18:59;5.18;;;4.38;;
24891;SDS011;12954;50.688;10.908;2022-12-26T01:21:27;6.07;;;4.68;;
24891;SDS011;12954;50.688;10.908;2022-12-26T01:23:56;8.82;;;4.57;;
24891;SDS011;12954;50.688;10.908;2022-12-26T01:26:26;4.70;;;4.22;;
24891;SDS011;12954;50.688;10.908;2022-12-26T01:28:54;5.57;;;4.47;;
24891;SDS011;12954;50.688;10.908;2022-12-26T01:31:22;6.35;;;4.13;;
24891;SDS011;12954;50.688;10.908;2022-12-26T01:33:51;4.45;;;4.05;;
24891;SDS011;12954;50.688;10.908;2022-12-26T01:36:19;5.53;;;3.80;;
24891;SDS011;12954;50.688;10.908;2022-12-26T01:38:48;4.80;;;3.72;;
24891;SDS011;12954;50.688;10.908;2022-12-26T01:41:16;5.15;;;4.10;;
24891;SDS011;12954;50.688;10.908;2022-12-26T01:43:57;5.45;;;3.42;;
24891;SDS011;12954;50.688;10.908;2022-12-26T01:46:28;4.30;;;3.50;;
24891;SDS011;12954;50.688;10.908;2022-12-26T01:49:04;5.00;;;3.72;;
24891;SDS011;12954;50.688;10.908;2022-12-26T01:51:36;5.38;;;3.97;;
24891;SDS011;12954;50.688;10.908;2022-12-26T01:54:09;4.22;;;3.80;;
24891;SDS011;12954;50.688;10.908;2022-12-26T01:56:59;4.40;;;3.75;;
24891;SDS011;12954;50.688;10.908;2022-12-26T01:59:33;6.15;;;3.55;;
24891;SDS011;12954;50.688;10.908;2022-12-26T02:02:05;5.90;;;3.50;;
24891;SDS011;12954;50.688;10.908;2022-12-26T02:04:36;4.75;;;3.60;;
24891;SDS011;12954;50.688;10.908;2022-12-26T02:07:25;4.38;;;3.63;;
24891;SDS011;12954;50.688;10.908;2022-12-26T02:09:54;3.95;;;3.55;;
24891;SDS011;12954;50.688;10.908;2022-12-26T02:12:23;5.72;;;3.85;;
24891;SDS011;12954;50.688;10.908;2022-12-26T02:15:05;6.53;;;3.65;;
24891;SDS011;12954;50.688;10.908;2022-12-26T02:17:36;5.25;;;3.47;;
24891;SDS011;12954;50.688;10.908;2022-12-26T02:20:09;5.65;;;3.58;;
24891;SDS011;12954;50.688;10.908;2022-12-26T02:23:04;5.72;;;3.72;;
24891;SDS011;12954;50.688;10.908;2022-12-26T02:32:24;5.50;;;3.72;;
24891;SDS011;12954;50.688;10.908;2022-12-26T02:35:06;4.07;;;3.58;;
24891;SDS011;12954;50.688;10.908;2022-12-26T02:37:47;5.10;;;3.80;;
24891;SDS011;12954;50.688;10.908;2022-12-26T02:40:30;5.10;;;3.70;;
24891;SDS011;12954;50.688;10.908;2022-12-26T02:43:10;4.27;;;3.33;;
24891;SDS011;12954;50.688;10.908;2022-12-26T02:45:46;4.53;;;3.80;;
24891;SDS011;12954;50.688;10.908;2022-12-26T02:48:41;4.50;;;3.90;;
24891;SDS011;12954;50.688;10.908;2022-12-26T02:51:18;4.43;;;3.67;;
24891;SDS011;12954;50.688;10.908;2022-12-26T02:54:14;5.38;;;3.80;;
24891;SDS011;12954;50.688;10.908;2022-12-26T02:57:15;6.68;;;3.58;;
24891;SDS011;12954;50.688;10.908;2022-12-26T03:00:04;5.07;;;3.40;;
24891;SDS011;12954;50.688;10.908;2022-12-26T03:02:57;7.70;;;3.38;;
24891;SDS011;12954;50.688;10.908;2022-12-26T03:05:49;4.68;;;3.50;;
24891;SDS011;12954;50.688;10.908;2022-12-26T03:08:39;4.07;;;3.53;;
24891;SDS011;12954;50.688;10.908;2022-12-26T03:11:31;4.57;;;3.45;;
24891;SDS011;12954;50.688;10.908;2022-12-26T03:14:22;4.10;;;3.70;;
24891;SDS011;12954;50.688;10.908;2022-12-26T03:16:54;5.40;;;3.50;;
24891;SDS011;12954;50.688;10.908;2022-12-26T03:19:43;5.53;;;3.40;;
24891;SDS011;12954;50.688;10.908;2022-12-26T03:22:29;6.28;;;3.90;;
24891;SDS011;12954;50.688;10.908;2022-12-26T03:25:06;4.75;;;3.83;;
24891;SDS011;12954;50.688;10.908;2022-12-26T03:27:54;4.45;;;3.22;;
24891;SDS011;12954;50.688;10.908;2022-12-26T03:30:22;4.22;;;3.35;;
24891;SDS011;12954;50.688;10.908;2022-12-26T03:33:08;5.72;;;3.15;;
24891;SDS011;12954;50.688;10.908;2022-12-26T03:35:57;3.83;;;2.70;;
24891;SDS011;12954;50.688;10.908;2022-12-26T03:38:29;3.50;;;3.00;;
24891;SDS011;12954;50.688;10.908;2022-12-26T03:41:04;4.80;;;2.90;;
24891;SDS011;12954;50.688;10.908;2022-12-26T03:43:57;7.28;;;3.33;;
24891;SDS011;12954;50.688;10.908;2022-12-26T03:46:57;5.45;;;3.20;;
24891;SDS011;12954;50.688;10.908;2022-12-26T03:49:52;4.32;;;3.15;;
24891;SDS011;12954;50.688;10.908;2022-12-26T03:52:44;4.50;;;3.45;;
24891;SDS011;12954;50.688;10.908;2022-12-26T03:55:39;3.85;;;3.00;;
24891;SDS011;12954;50.688;10.908;2022-12-26T03:58:38;4.50;;;3.40;;
24891;SDS011;12954;50.688;10.908;2022-12-26T04:01:31;5.65;;;3.25;;
24891;SDS011;12954;50.688;10.908;2022-12-26T04:04:19;6.70;;;3.35;;
24891;SDS011;12954;50.688;10.908;2022-12-26T04:07:10;3.95;;;3.20;;
24891;SDS011;12954;50.688;10.908;2022-12-26T04:10:00;4.72;;;3.25;;
24891;SDS011;12954;50.688;10.908;2022-12-26T04:12:51;4.25;;;2.97;;
24891;SDS011;12954;50.688;10.908;2022-12-26T04:15:41;4.10;;;2.65;;
24891;SDS011;12954;50.688;10.908;2022-12-26T04:18:32;6.20;;;3.15;;
24891;SDS011;12954;50.688;10.908;2022-12-26T04:21:24;3.78;;;2.72;;
24891;SDS011;12954;50.688;10.908;2022-12-26T04:24:17;5.70;;;3.38;;
24891;SDS011;12954;50.688;10.908;2022-12-26T04:27:07;4.13;;;3.10;;
24891;SDS011;12954;50.688;10.908;2022-12-26T04:29:58;3.90;;;2.92;;
24891;SDS011;12954;50.688;10.908;2022-12-26T04:32:44;6.55;;;3.30;;
24891;SDS011;12954;50.688;10.908;2022-12-26T04:35:33;3.92;;;3.00;;
24891;SDS011;12954;50.688;10.908;2022-12-26T04:38:26;4.63;;;2.88;;
24891;SDS011;12954;50.688;10.908;2022-12-26T04:41:15;10.02;;;6.57;;
24891;SDS011;12954;50.688;10.908;2022-12-26T04:44:04;4.13;;;3.38;;
24891;SDS011;12954;50.688;10.908;2022-12-26T04:46:37;5.45;;;3.45;;
24891;SDS011;12954;50.688;10.908;2022-12-26T04:49:08;4.70;;;3.08;;
24891;SDS011;12954;50.688;10.908;2022-12-26T04:51:55;4.75;;;2.83;;
24891;SDS011;12954;50.688;10.908;2022-12-26T04:54:25;3.83;;;2.88;;
24891;SDS011;12954;50.688;10.908;2022-12-26T04:56:54;5.25;;;2.88;;
24891;SDS011;12954;50.688;10.908;2022-12-26T04:59:23;3.88;;;2.90;;
24891;SDS011;12954;50.688;10.908;2022-12-26T05:01:53;5.97;;;3.90;;
24891;SDS011;12954;50.688;10.908;2022-12-26T05:04:47;7.25;;;3.40;;
24891;SDS011;12954;50.688;10.908;2022-12-26T05:07:33;3.67;;;3.00;;
24891;SDS011;12954;50.688;10.908;2022-12-26T05:10:21;4.65;;;3.10;;
24891;SDS011;12954;50.688;10.908;2022-12-26T05:12:52;6.88;;;4.35;;
24891;SDS011;12954;50.688;10.908;2022-12-26T05:15:21;4.10;;;2.72;;
24891;SDS011;12954;50.688;10.908;2022-12-26T05:17:51;4.28;;;2.45;;
24891;SDS011;12954;50.688;10.908;2022-12-26T05:20:38;5.88;;;2.95;;
24891;SDS011;12954;50.688;10.908;2022-12-26T05:23:26;3.70;;;3.20;;
24891;SDS011;12954;50.688;10.908;2022-12-26T05:26:13;5.43;;;3.70;;
24891;SDS011;12954;50.688;10.908;2022-12-26T05:29:02;4.70;;;3.00;;
24891;SDS011;12954;50.688;10.908;2022-12-26T05:31:31;7.35;;;3.45;;
24891;SDS011;12954;50.688;10.908;2022-12-26T05:34:03;5.63;;;3.30;;
24891;SDS011;12954;50.688;10.908;2022-12-26T05:36:33;3.65;;;2.95;;
24891;SDS011;12954;50.688;10.908;2022-12-26T05:39:04;5.50;;;3.13;;
24891;SDS011;12954;50.688;10.908;2022-12-26T05:41:34;5.95;;;3.30;;
24891;SDS011;12954;50.688;10.908;2022-12-26T05:44:03;5.38;;;3.75;;
24891;SDS011;12954;50.688;10.908;2022-12-26T05:46:32;4.18;;;3.13;;
24891;SDS011;12954;50.688;10.908;2022-12-26T05:49:01;5.68;;;3.63;;
24891;SDS011;12954;50.688;10.908;2022-12-26T05:51:31;4.45;;;3.20;;
24891;SDS011;12954;50.688;10.908;2022-12-26T05:53:59;4.97;;;3.40;;
24891;SDS011;12954;50.688;10.908;2022-12-26T05:56:28;5.35;;;3.03;;
24891;SDS011;12954;50.688;10.908;2022-12-26T05:58:58;5.45;;;3.10;;
24891;SDS011;12954;50.688;10.908;2022-12-26T06:01:27;4.40;;;2.90;;
24891;SDS011;12954;50.688;10.908;2022-12-26T06:03:57;4.50;;;2.80;;
24891;SDS011;12954;50.688;10.908;2022-12-26T06:06:27;6.03;;;2.90;;
24891;SDS011;12954;50.688;10.908;2022-12-26T06:08:57;5.07;;;2.78;;
24891;SDS011;12954;50.688;10.908;2022-12-26T06:11:25;4.07;;;2.78;;
24891;SDS011;12954;50.688;10.908;2022-12-26T06:13:54;5.20;;;2.60;;
24891;SDS011;12954;50.688;10.908;2022-12-26T06:16:23;4.15;;;2.80;;
24891;SDS011;12954;50.688;10.908;2022-12-26T06:18:52;6.35;;;2.80;;
24891;SDS011;12954;50.688;10.908;2022-12-26T06:21:21;4.78;;;2.80;;
24891;SDS011;12954;50.688;10.908;2022-12-26T06:23:50;4.38;;;2.55;;
24891;SDS011;12954;50.688;10.908;2022-12-26T06:26:20;4.32;;;2.83;;
24891;SDS011;12954;50.688;10.908;2022-12-26T06:28:48;5.70;;;2.70;;
24891;SDS011;12954;50.688;10.908;2022-12-26T06:31:18;3.70;;;2.38;;
24891;SDS011;12954;50.688;10.908;2022-12-26T06:33:48;3.70;;;2.45;;
24891;SDS011;12954;50.688;10.908;2022-12-26T06:36:18;6.28;;;2.67;;
24891;SDS011;12954;50.688;10.908;2022-12-26T06:38:48;4.20;;;2.60;;
24891;SDS011;12954;50.688;10.908;2022-12-26T06:41:18;4.80;;;2.55;;
24891;SDS011;12954;50.688;10.908;2022-12-26T06:43:49;7.38;;;2.70;;
24891;SDS011;12954;50.688;10.908;2022-12-26T06:46:19;4.10;;;2.50;;
24891;SDS011;12954;50.688;10.908;2022-12-26T06:48:49;4.80;;;2.30;;
24891;SDS011;12954;50.688;10.908;2022-12-26T06:51:18;5.20;;;2.50;;
24891;SDS011;12954;50.688;10.908;2022-12-26T06:53:48;2.95;;;2.45;;
24891;SDS011;12954;50.688;10.908;2022-12-26T06:56:18;3.47;;;2.25;;
24891;SDS011;12954;50.688;10.908;2022-12-26T06:58:51;3.58;;;2.33;;
24891;SDS011;12954;50.688;10.908;2022-12-26T07:01:20;3.92;;;2.50;;
24891;SDS011;12954;50.688;10.908;2022-12-26T07:03:50;4.75;;;2.60;;
24891;SDS011;12954;50.688;10.908;2022-12-26T07:06:20;6.38;;;4.03;;
24891;SDS011;12954;50.688;10.908;2022-12-26T07:08:50;4.45;;;3.10;;
24891;SDS011;12954;50.688;10.908;2022-12-26T07:11:22;3.13;;;2.30;;
24891;SDS011;12954;50.688;10.908;2022-12-26T07:13:52;3.83;;;2.70;;
24891;SDS011;12954;50.688;10.908;2022-12-26T07:16:21;6.10;;;2.58;;
24891;SDS011;12954;50.688;10.908;2022-12-26T07:18:50;3.65;;;2.92;;
24891;SDS011;12954;50.688;10.908;2022-12-26T07:21:20;7.40;;;2.72;;
24891;SDS011;12954;50.688;10.908;2022-12-26T07:23:49;4.68;;;3.00;;
24891;SDS011;12954;50.688;10.908;2022-12-26T07:26:18;4.60;;;2.67;;
24891;SDS011;12954;50.688;10.908;2022-12-26T07:28:48;4.00;;;2.63;;
24891;SDS011;12954;50.688;10.908;2022-12-26T07:31:20;8.10;;;2.78;;
24891;SDS011;12954;50.688;10.908;2022-12-26T07:33:49;6.00;;;2.72;;
24891;SDS011;12954;50.688;10.908;2022-12-26T07:36:19;5.13;;;2.40;;
24891;SDS011;12954;50.688;10.908;2022-12-26T07:38:48;6.28;;;2.60;;
24891;SDS011;12954;50.688;10.908;2022-12-26T07:41:16;3.67;;;2.47;;
24891;SDS011;12954;50.688;10.908;2022-12-26T07:44:03;3.97;;;2.30;;
24891;SDS011;12954;50.688;10.908;2022-12-26T07:46:32;5.07;;;2.33;;
24891;SDS011;12954;50.688;10.908;2022-12-26T07:49:01;4.50;;;3.08;;
24891;SDS011;12954;50.688;10.908;2022-12-26T07:51:30;4.07;;;2.33;;
24891;SDS011;12954;50.688;10.908;2022-12-26T07:53:59;3.58;;;2.63;;
24891;SDS011;12954;50.688;10.908;2022-12-26T07:56:34;3.13;;;2.60;;
24891;SDS011;12954;50.688;10.908;2022-12-26T07:59:04;4.80;;;2.60;;
24891;SDS011;12954;50.688;10.908;2022-12-26T08:01:32;4.13;;;2.50;;
24891;SDS011;12954;50.688;10.908;2022-12-26T08:04:01;4.60;;;2.50;;
24891;SDS011;12954;50.688;10.908;2022-12-26T08:06:29;4.45;;;2.55;;
24891;SDS011;12954;50.688;10.908;2022-12-26T08:08:58;4.85;;;2.42;;
24891;SDS011;12954;50.688;10.908;2022-12-26T08:11:26;3.63;;;2.22;;
24891;SDS011;12954;50.688;10.908;2022-12-26T08:13:58;3.08;;;2.20;;
24891;SDS011;12954;50.688;10.908;2022-12-26T08:16:28;3.03;;;2.17;;
24891;SDS011;12954;50.688;10.908;2022-12-26T08:18:57;3.50;;;2.28;;
24891;SDS011;12954;50.688;10.908;2022-12-26T08:21:29;7.40;;;2.55;;
24891;SDS011;12954;50.688;10.908;2022-12-26T08:23:57;4.60;;;2.60;;
24891;SDS011;12954;50.688;10.908;2022-12-26T08:26:26;3.70;;;2.45;;
24891;SDS011;12954;50.688;10.908;2022-12-26T08:28:55;3.88;;;2.17;;
24891;SDS011;12954;50.688;10.908;2022-12-26T08:31:23;7.35;;;2.08;;
24891;SDS011;12954;50.688;10.908;2022-12-26T08:33:54;3.78;;;2.42;;
24891;SDS011;12954;50.688;10.908;2022-12-26T08:36:23;5.78;;;2.65;;
24891;SDS011;12954;50.688;10.908;2022-12-26T08:38:52;8.77;;;3.88;;
24891;SDS011;12954;50.688;10.908;2022-12-26T08:41:21;7.78;;;3.45;;
24891;SDS011;12954;50.688;10.908;2022-12-26T08:43:50;4.18;;;2.60;;
24891;SDS011;12954;50.688;10.908;2022-12-26T08:46:39;5.78;;;3.70;;
24891;SDS011;12954;50.688;10.908;2022-12-26T08:49:09;4.15;;;2.67;;
24891;SDS011;12954;50.688;10.908;2022-12-26T08:51:37;3.40;;;2.10;;
24891;SDS011;12954;50.688;10.908;2022-12-26T08:54:06;5.97;;;2.50;;
24891;SDS011;12954;50.688;10.908;2022-12-26T08:56:34;4.25;;;2.30;;
24891;SDS011;12954;50.688;10.908;2022-12-26T08:59:03;4.45;;;2.67;;
24891;SDS011;12954;50.688;10.908;2022-12-26T09:01:31;3.90;;;2.25;;
24891;SDS011;12954;50.688;10.908;2022-12-26T09:04:00;3.22;;;2.20;;
24891;SDS011;12954;50.688;10.908;2022-12-26T09:06:34;3.25;;;2.05;;
24891;SDS011;12954;50.688;10.908;2022-12-26T09:09:03;3.83;;;1.90;;
24891;SDS011;12954;50.688;10.908;2022-12-26T09:11:32;2.53;;;1.70;;
24891;SDS011;12954;50.688;10.908;2022-12-26T09:14:01;2.13;;;1.58;;
24891;SDS011;12954;50.688;10.908;2022-12-26T09:16:32;4.80;;;2.10;;
24891;SDS011;12954;50.688;10.908;2022-12-26T09:19:09;2.33;;;1.70;;
24891;SDS011;12954;50.688;10.908;2022-12-26T09:21:40;2.30;;;1.70;;
24891;SDS011;12954;50.688;10.908;2022-12-26T09:24:09;2.67;;;1.55;;
24891;SDS011;12954;50.688;10.908;2022-12-26T09:26:40;1.83;;;1.38;;
24891;SDS011;12954;50.688;10.908;2022-12-26T09:29:09;2.88;;;1.52;;
24891;SDS011;12954;50.688;10.908;2022-12-26T09:31:38;1.42;;;1.20;;
24891;SDS011;12954;50.688;10.908;2022-12-26T09:34:07;1.58;;;0.90;;
24891;SDS011;12954;50.688;10.908;2022-12-26T09:36:36;1.10;;;0.80;;
24891;SDS011;12954;50.688;10.908;2022-12-26T09:39:09;1.65;;;0.80;;
24891;SDS011;12954;50.688;10.908;2022-12-26T09:41:45;2.45;;;1.00;;
24891;SDS011;12954;50.688;10.908;2022-12-26T09:44:24;0.70;;;0.40;;
24891;SDS011;12954;50.688;10.908;2022-12-26T09:47:04;2.25;;;1.45;;
24891;SDS011;12954;50.688;10.908;2022-12-26T09:49:42;1.70;;;0.98;;
24891;SDS011;12954;50.688;10.908;2022-12-26T09:52:18;1.05;;;0.80;;
24891;SDS011;12954;50.688;10.908;2022-12-26T09:54:51;3.00;;;1.27;;
24891;SDS011;12954;50.688;10.908;2022-12-26T09:57:25;1.33;;;1.10;;
24891;SDS011;12954;50.688;10.908;2022-12-26T10:00:02;3.17;;;1.90;;
24891;SDS011;12954;50.688;10.908;2022-12-26T10:02:32;2.08;;;1.05;;
24891;SDS011;12954;50.688;10.908;2022-12-26T10:05:01;2.88;;;1.20;;
24891;SDS011;12954;50.688;10.908;2022-12-26T10:07:32;2.47;;;1.25;;
24891;SDS011;12954;50.688;10.908;2022-12-26T10:10:09;1.70;;;1.20;;
24891;SDS011;12954;50.688;10.908;2022-12-26T10:12:41;1.60;;;1.00;;
24891;SDS011;12954;50.688;10.908;2022-12-26T10:15:26;1.23;;;1.13;;
24891;SDS011;12954;50.688;10.908;2022-12-26T10:18:05;2.35;;;1.30;;
24891;SDS011;12954;50.688;10.908;2022-12-26T10:20:44;2.08;;;1.00;;
24891;SDS011;12954;50.688;10.908;2022-12-26T10:23:24;1.42;;;0.98;;
24891;SDS011;12954;50.688;10.908;2022-12-26T10:26:07;1.67;;;0.90;;
24891;SDS011;12954;50.688;10.908;2022-12-26T10:28:40;2.47;;;0.95;;
24891;SDS011;12954;50.688;10.908;2022-12-26T10:31:15;2.42;;;1.17;;
24891;SDS011;12954;50.688;10.908;2022-12-26T10:33:49;4.05;;;1.30;;
24891;SDS011;12954;50.688;10.908;2022-12-26T10:36:26;1.67;;;1.05;;
24891;SDS011;12954;50.688;10.908;2022-12-26T10:39:00;1.88;;;0.90;;
24891;SDS011;12954;50.688;10.908;2022-12-26T10:41:33;2.10;;;1.73;;
24891;SDS011;12954;50.688;10.908;2022-12-26T10:44:08;2.10;;;0.85;;
24891;SDS011;12954;50.688;10.908;2022-12-26T10:46:42;3.97;;;1.27;;
24891;SDS011;12954;50.688;10.908;2022-12-26T10:49:18;2.40;;;1.10;;
24891;SDS011;12954;50.688;10.908;2022-12-26T10:51:49;4.18;;;2.53;;
24891;SDS011;12954;50.688;10.908;2022-12-26T10:54:21;3.17;;;2.03;;
24891;SDS011;12954;50.688;10.908;2022-12-26T10:56:51;4.22;;;2.92;;
24891;SDS011;12954;50.688;10.908;2022-12-26T10:59:23;3.88;;;2.75;;
24891;SDS011;12954;50.688;10.908;2022-12-26T11:02:10;2.42;;;1.90;;
24891;SDS011;12954;50.688;10.908;2022-12-26T11:08:03;0.75;;;0.63;;
24891;SDS011;12954;50.688;10.908;2022-12-26T11:10:34;3.38;;;0.90;;
24891;SDS011;12954;50.688;10.908;2022-12-26T11:13:05;2.25;;;1.15;;
24891;SDS011;12954;50.688;10.908;2022-12-26T11:15:37;1.25;;;0.98;;
24891;SDS011;12954;50.688;10.908;2022-12-26T11:18:12;2.35;;;1.23;;
24891;SDS011;12954;50.688;10.908;2022-12-26T11:20:44;1.50;;;1.00;;
24891;SDS011;12954;50.688;10.908;2022-12-26T11:23:21;1.73;;;1.30;;
24891;SDS011;12954;50.688;10.908;2022-12-26T11:25:51;2.65;;;1.38;;
24891;SDS011;12954;50.688;10.908;2022-12-26T11:28:25;1.08;;;0.82;;
24891;SDS011;12954;50.688;10.908;2022-12-26T11:30:59;2.15;;;1.50;;
24891;SDS011;12954;50.688;10.908;2022-12-26T11:33:29;1.20;;;0.80;;
24891;SDS011;12954;50.688;10.908;2022-12-26T11:36:04;1.52;;;1.23;;
24891;SDS011;12954;50.688;10.908;2022-12-26T11:38:43;1.33;;;0.98;;
24891;SDS011;12954;50.688;10.908;2022-12-26T11:41:16;1.50;;;0.65;;
24891;SDS011;12954;50.688;10.908;2022-12-26T11:44:01;1.80;;;0.60;;
24891;SDS011;12954;50.688;10.908;2022-12-26T11:46:34;1.42;;;0.93;;
24891;SDS011;12954;50.688;10.908;2022-12-26T11:49:05;1.25;;;1.00;;
24891;SDS011;12954;50.688;10.908;2022-12-26T11:51:45;1.30;;;0.90;;
24891;SDS011;12954;50.688;10.908;2022-12-26T11:54:25;1.65;;;1.02;;
24891;SDS011;12954;50.688;10.908;2022-12-26T11:57:00;1.30;;;1.02;;
24891;SDS011;12954;50.688;10.908;2022-12-26T11:59:37;1.67;;;1.10;;
24891;SDS011;12954;50.688;10.908;2022-12-26T12:04:58;2.67;;;1.00;;
24891;SDS011;12954;50.688;10.908;2022-12-26T12:10:43;1.98;;;1.20;;
24891;SDS011;12954;50.688;10.908;2022-12-26T12:13:22;1.33;;;1.10;;
24891;SDS011;12954;50.688;10.908;2022-12-26T12:16:02;1.63;;;1.20;;
24891;SDS011;12954;50.688;10.908;2022-12-26T12:18:42;2.15;;;1.20;;
24891;SDS011;12954;50.688;10.908;2022-12-26T12:21:17;1.73;;;1.00;;
24891;SDS011;12954;50.688;10.908;2022-12-26T12:23:58;1.98;;;1.15;;
24891;SDS011;12954;50.688;10.908;2022-12-26T12:26:41;2.17;;;1.23;;
24891;SDS011;12954;50.688;10.908;2022-12-26T12:32:04;2.53;;;1.10;;
24891;SDS011;12954;50.688;10.908;2022-12-26T12:34:51;1.85;;;1.15;;
24891;SDS011;12954;50.688;10.908;2022-12-26T12:37:35;3.25;;;1.13;;
24891;SDS011;12954;50.688;10.908;2022-12-26T12:40:24;2.20;;;1.00;;
24891;SDS011;12954;50.688;10.908;2022-12-26T12:43:02;2.92;;;1.40;;
24891;SDS011;12954;50.688;10.908;2022-12-26T12:45:41;3.35;;;1.40;;
24891;SDS011;12954;50.688;10.908;2022-12-26T12:51:16;2.75;;;0.90;;
24891;SDS011;12954;50.688;10.908;2022-12-26T12:54:01;2.15;;;1.00;;
24891;SDS011;12954;50.688;10.908;2022-12-26T12:56:46;1.17;;;0.95;;
24891;SDS011;12954;50.688;10.908;2022-12-26T12:59:25;2.08;;;1.10;;
24891;SDS011;12954;50.688;10.908;2022-12-26T13:02:03;3.45;;;1.20;;
24891;SDS011;12954;50.688;10.908;2022-12-26T13:04:49;4.13;;;1.52;;
24891;SDS011;12954;50.688;10.908;2022-12-26T13:07:24;2.38;;;1.08;;
24891;SDS011;12954;50.688;10.908;2022-12-26T13:09:59;1.42;;;1.15;;
24891;SDS011;12954;50.688;10.908;2022-12-26T13:12:30;2.88;;;1.27;;
24891;SDS011;12954;50.688;10.908;2022-12-26T13:15:04;2.38;;;1.65;;
24891;SDS011;12954;50.688;10.908;2022-12-26T13:17:38;1.52;;;1.13;;
24891;SDS011;12954;50.688;10.908;2022-12-26T13:20:16;2.33;;;1.38;;
24891;SDS011;12954;50.688;10.908;2022-12-26T13:22:48;2.70;;;1.60;;
24891;SDS011;12954;50.688;10.908;2022-12-26T13:25:39;2.70;;;1.20;;
24891;SDS011;12954;50.688;10.908;2022-12-26T13:28:12;2.10;;;1.20;;
24891;SDS011;12954;50.688;10.908;2022-12-26T13:30:45;2.03;;;1.23;;
24891;SDS011;12954;50.688;10.908;2022-12-26T13:33:20;2.97;;;1.08;;
24891;SDS011;12954;50.688;10.908;2022-12-26T13:35:51;2.40;;;0.85;;
24891;SDS011;12954;50.688;10.908;2022-12-26T13:38:22;3.13;;;1.30;;
24891;SDS011;12954;50.688;10.908;2022-12-26T13:40:52;1.65;;;0.70;;
24891;SDS011;12954;50.688;10.908;2022-12-26T13:43:58;1.63;;;0.90;;
24891;SDS011;12954;50.688;10.908;2022-12-26T13:46:34;1.15;;;0.90;;
24891;SDS011;12954;50.688;10.908;2022-12-26T13:49:24;1.98;;;1.02;;
24891;SDS011;12954;50.688;10.908;2022-12-26T13:55:18;1.60;;;1.02;;
24891;SDS011;12954;50.688;10.908;2022-12-26T13:58:08;2.95;;;1.00;;
24891;SDS011;12954;50.688;10.908;2022-12-26T14:00:47;2.55;;;1.30;;
24891;SDS011;12954;50.688;10.908;2022-12-26T14:03:25;1.55;;;0.60;;
24891;SDS011;12954;50.688;10.908;2022-12-26T14:09:32;1.48;;;0.93;;
24891;SDS011;12954;50.688;10.908;2022-12-26T14:15:16;3.38;;;1.02;;
24891;SDS011;12954;50.688;10.908;2022-12-26T14:18:06;1.52;;;1.02;;
24891;SDS011;12954;50.688;10.908;2022-12-26T14:20:43;1.80;;;1.08;;
24891;SDS011;12954;50.688;10.908;2022-12-26T14:23:31;1.17;;;0.70;;
24891;SDS011;12954;50.688;10.908;2022-12-26T14:26:12;0.90;;;0.70;;
24891;SDS011;12954;50.688;10.908;2022-12-26T14:28:55;1.77;;;1.00;;
24891;SDS011;12954;50.688;10.908;2022-12-26T14:31:30;1.77;;;1.15;;
24891;SDS011;12954;50.688;10.908;2022-12-26T14:34:11;3.13;;;1.83;;
24891;SDS011;12954;50.688;10.908;2022-12-26T14:36:48;1.83;;;0.90;;
24891;SDS011;12954;50.688;10.908;2022-12-26T14:42:16;1.47;;;0.70;;
24891;SDS011;12954;50.688;10.908;2022-12-26T14:45:11;1.10;;;0.52;;
24891;SDS011;12954;50.688;10.908;2022-12-26T14:48:02;2.35;;;1.10;;
24891;SDS011;12954;50.688;10.908;2022-12-26T14:50:51;1.20;;;0.85;;
24891;SDS011;12954;50.688;10.908;2022-12-26T14:53:27;0.90;;;0.70;;
24891;SDS011;12954;50.688;10.908;2022-12-26T14:55:59;2.10;;;0.80;;
24891;SDS011;12954;50.688;10.908;2022-12-26T14:58:41;3.13;;;0.85;;
24891;SDS011;12954;50.688;10.908;2022-12-26T15:04:26;1.35;;;0.70;;
24891;SDS011;12954;50.688;10.908;2022-12-26T15:10:32;2.08;;;0.75;;
24891;SDS011;12954;50.688;10.908;2022-12-26T15:13:46;2.30;;;0.60;;
24891;SDS011;12954;50.688;10.908;2022-12-26T15:16:40;1.73;;;0.60;;
24891;SDS011;12954;50.688;10.908;2022-12-26T15:25:26;3.80;;;0.82;;
24891;SDS011;12954;50.688;10.908;2022-12-26T15:28:19;2.67;;;0.60;;
24891;SDS011;12954;50.688;10.908;2022-12-26T15:31:15;1.70;;;0.73;;
24891;SDS011;12954;50.688;10.908;2022-12-26T15:36:27;1.63;;;0.63;;
24891;SDS011;12954;50.688;10.908;2022-12-26T15:39:04;1.52;;;0.60;;
24891;SDS011;12954;50.688;10.908;2022-12-26T15:41:46;2.50;;;0.70;;
24891;SDS011;12954;50.688;10.908;2022-12-26T15:44:21;1.05;;;0.75;;
24891;SDS011;12954;50.688;10.908;2022-12-26T15:47:01;1.98;;;0.50;;
24891;SDS011;12954;50.688;10.908;2022-12-26T15:49:42;1.00;;;0.77;;
24891;SDS011;12954;50.688;10.908;2022-12-26T15:52:23;2.25;;;1.08;;
24891;SDS011;12954;50.688;10.908;2022-12-26T15:55:07;1.45;;;0.60;;
24891;SDS011;12954;50.688;10.908;2022-12-26T15:57:58;0.60;;;0.50;;
24891;SDS011;12954;50.688;10.908;2022-12-26T16:00:34;0.70;;;0.40;;
24891;SDS011;12954;50.688;10.908;2022-12-26T16:03:15;1.55;;;1.02;;
24891;SDS011;12954;50.688;10.908;2022-12-26T16:05:52;2.20;;;0.60;;
24891;SDS011;12954;50.688;10.908;2022-12-26T16:08:33;0.70;;;0.57;;
24891;SDS011;12954;50.688;10.908;2022-12-26T16:11:16;1.25;;;0.50;;
24891;SDS011;12954;50.688;10.908;2022-12-26T16:13:48;0.47;;;0.40;;
24891;SDS011;12954;50.688;10.908;2022-12-26T16:16:25;1.38;;;0.80;;